createdAt,value
2022-12-06T00:00:25.442Z,32.10
2022-12-06T00:03:27.722Z,36.38
2022-12-06T00:06:12.626Z,24.13
2022-12-06T00:08:56.832Z,25.92
2022-12-06T00:12:17.126Z,32.67
2022-12-06T00:14:45.468Z,38.13
2022-12-06T00:17:33.131Z,43.97
2022-12-06T00:20:15.134Z,26.90
2022-12-06T00:22:53.345Z,27.33
2022-12-06T00:25:27.070Z,28.58
2022-12-06T00:27:55.690Z,23.60
2022-12-06T00:30:27.208Z,30.65
2022-12-06T00:32:55.703Z,29.70
2022-12-06T00:35:42.261Z,35.85
2022-12-06T00:38:11.902Z,39.00
2022-12-06T00:43:24.727Z,37.58
2022-12-06T00:45:53.861Z,35.75
2022-12-06T00:48:22.624Z,32.22
2022-12-06T00:51:19.073Z,26.37
2022-12-06T00:53:47.630Z,25.10
2022-12-06T00:57:10.315Z,26.30
2022-12-06T00:59:27.600Z,28.40
2022-12-06T01:02:07.746Z,26.40
2022-12-06T01:08:05.293Z,23.20
2022-12-06T01:10:42.314Z,24.15
2022-12-06T01:16:27.218Z,22.48
2022-12-06T01:19:13.278Z,32.50
2022-12-06T01:21:55.231Z,28.83
2022-12-06T01:24:29.850Z,26.50
2022-12-06T01:27:13.989Z,29.48
2022-12-06T01:30:01.056Z,29.08
2022-12-06T01:32:45.821Z,38.80
2022-12-06T01:35:12.919Z,47.80
2022-12-06T01:37:48.858Z,22.95
2022-12-06T01:43:41.756Z,22.60
2022-12-06T01:46:23.949Z,33.17
2022-12-06T01:49:20.621Z,37.25
2022-12-06T01:52:12.625Z,22.98
2022-12-06T01:54:40.591Z,30.87
2022-12-06T01:57:17.171Z,25.50
2022-12-06T02:00:03.747Z,22.23
2022-12-06T02:02:43.275Z,23.25
2022-12-06T02:05:17.540Z,27.80
2022-12-06T02:07:55.225Z,27.45
2022-12-06T02:10:54.650Z,19.23
2022-12-06T02:13:44.536Z,19.75
2022-12-06T02:20:19.190Z,18.85
2022-12-06T02:23:28.232Z,21.23
2022-12-06T02:26:25.676Z,13.55
2022-12-06T02:29:39.498Z,16.40
2022-12-06T02:32:18.249Z,17.63
2022-12-06T02:35:21.919Z,19.05
2022-12-06T02:38:07.703Z,16.75
2022-12-06T02:43:43.843Z,14.82
2022-12-06T02:49:31.524Z,15.88
2022-12-06T02:52:15.327Z,17.60
2022-12-06T02:54:54.625Z,15.88
2022-12-06T02:57:53.160Z,19.83
2022-12-06T03:01:02.537Z,18.70
2022-12-06T03:03:55.588Z,17.13
2022-12-06T03:07:26.282Z,16.87
2022-12-06T03:09:59.454Z,16.13
2022-12-06T03:12:58.859Z,16.80
2022-12-06T03:25:32.165Z,17.17
2022-12-06T03:28:09.405Z,18.15
2022-12-06T03:30:59.324Z,18.48
2022-12-06T03:33:56.529Z,16.95
2022-12-06T03:36:28.771Z,17.75
2022-12-06T03:39:05.798Z,19.02
2022-12-06T03:41:56.390Z,18.13
2022-12-06T03:44:33.987Z,18.90
2022-12-06T03:50:16.387Z,19.17
2022-12-06T03:55:51.435Z,19.73
2022-12-06T03:58:32.272Z,17.73
2022-12-06T04:01:41.384Z,18.55
2022-12-06T04:04:22.544Z,16.77
2022-12-06T04:07:23.997Z,16.48
2022-12-06T04:10:05.816Z,19.00
2022-12-06T04:12:58.537Z,22.45
2022-12-06T04:15:50.602Z,18.48
2022-12-06T04:21:34.541Z,19.80
2022-12-06T04:24:13.795Z,24.15
2022-12-06T04:26:48.524Z,22.23
2022-12-06T04:30:02.256Z,22.48
2022-12-06T04:32:57.632Z,29.85
2022-12-06T04:36:00.031Z,23.35
2022-12-06T04:41:33.682Z,19.83
2022-12-06T07:01:45.640Z,37.90
2022-12-06T07:04:21.606Z,33.00
2022-12-06T07:07:01.902Z,39.25
2022-12-06T07:09:39.748Z,45.03
2022-12-06T07:12:30.344Z,46.95
2022-12-06T07:15:00.677Z,53.53
2022-12-06T07:17:30.575Z,51.15
2022-12-06T07:20:04.059Z,85.70
2022-12-06T07:22:45.022Z,57.50
2022-12-06T07:25:26.418Z,44.30
2022-12-06T07:28:16.368Z,50.28
2022-12-06T07:31:01.398Z,55.33
2022-12-06T07:33:35.696Z,45.47
2022-12-06T07:36:17.333Z,60.33
2022-12-06T07:38:53.125Z,46.53
2022-12-06T07:41:46.734Z,53.83
2022-12-06T07:45:11.093Z,80.40
2022-12-06T07:47:44.714Z,53.53
2022-12-06T07:50:42.890Z,81.43
2022-12-06T07:56:23.524Z,52.90
2022-12-06T07:58:57.657Z,46.05
2022-12-06T08:02:14.528Z,60.53
2022-12-06T08:04:42.531Z,50.53
2022-12-06T08:07:30.846Z,41.45
2022-12-06T08:10:01.520Z,52.17
2022-12-06T08:12:32.781Z,52.00
2022-12-06T08:15:10.263Z,65.90
2022-12-06T08:17:52.937Z,81.35
2022-12-06T08:20:36.286Z,74.57
2022-12-06T08:23:08.865Z,63.70
2022-12-06T08:25:37.129Z,68.13
2022-12-06T08:28:04.834Z,45.65
2022-12-06T08:30:32.457Z,46.33
2022-12-06T08:33:02.757Z,54.95
2022-12-06T08:35:35.605Z,44.38
2022-12-06T08:38:15.837Z,40.45
2022-12-06T08:40:52.643Z,43.80
2022-12-06T08:43:34.041Z,50.92
2022-12-06T08:49:31.846Z,54.83
2022-12-06T08:58:11.010Z,51.40
2022-12-06T09:04:47.358Z,52.90
2022-12-06T09:07:35.740Z,52.25
2022-12-06T09:10:05.444Z,49.47
2022-12-06T09:12:37.742Z,52.47
2022-12-06T09:18:11.135Z,49.63
2022-12-06T09:20:46.836Z,51.22
2022-12-06T09:23:33.041Z,61.50
2022-12-06T09:55:52.260Z,49.38
2022-12-06T10:03:02.260Z,42.35
2022-12-06T10:05:35.093Z,51.83
2022-12-06T10:08:38.142Z,49.70
2022-12-06T10:11:10.586Z,42.92
2022-12-06T10:14:00.730Z,47.90
2022-12-06T10:16:33.297Z,47.83
2022-12-06T10:19:08.331Z,46.80
2022-12-06T10:22:00.859Z,46.83
2022-12-06T10:25:08.585Z,48.45
2022-12-06T10:27:39.365Z,52.47
2022-12-06T10:30:16.356Z,45.83
2022-12-06T10:33:16.844Z,41.28
2022-12-06T10:36:02.150Z,45.40
2022-12-06T10:39:22.934Z,48.55
2022-12-06T10:42:18.395Z,46.85
2022-12-06T10:45:07.344Z,52.45
2022-12-06T10:47:48.716Z,38.92
2022-12-06T10:50:22.396Z,49.03
2022-12-06T10:53:01.539Z,64.40
2022-12-06T10:55:48.263Z,45.58
2022-12-06T10:58:37.576Z,59.22
2022-12-06T11:01:34.544Z,51.58
2022-12-06T11:04:17.193Z,65.65
2022-12-06T11:06:55.629Z,59.80
2022-12-06T11:09:40.659Z,71.13
2022-12-06T11:12:31.938Z,66.68
2022-12-06T11:15:26.738Z,57.10
2022-12-06T11:18:02.599Z,74.32
2022-12-06T11:20:35.098Z,55.40
2022-12-06T11:23:20.645Z,67.30
2022-12-06T11:26:02.994Z,51.50
2022-12-06T11:28:43.814Z,50.38
2022-12-06T11:31:28.328Z,52.75
2022-12-06T11:33:55.096Z,52.65
2022-12-06T11:36:49.460Z,47.80
2022-12-06T11:39:16.792Z,43.55
2022-12-06T11:42:11.363Z,47.65
2022-12-06T11:44:49.279Z,54.97
2022-12-06T11:47:21.852Z,50.60
2022-12-06T11:49:54.487Z,51.17
2022-12-06T11:52:45.413Z,49.10
2022-12-06T11:55:19.627Z,56.72
2022-12-06T11:58:19.210Z,58.15
2022-12-06T12:03:41.597Z,56.72
2022-12-06T12:06:30.172Z,45.22
2022-12-06T12:09:00.272Z,43.83
2022-12-06T12:11:33.634Z,43.30
2022-12-06T12:14:27.053Z,47.80
2022-12-06T12:17:01.542Z,44.88
2022-12-06T12:19:32.758Z,37.85
2022-12-06T12:22:13.183Z,41.10
2022-12-06T12:25:03.330Z,34.63
2022-12-06T12:27:34.245Z,39.92
2022-12-06T12:30:22.925Z,41.22
2022-12-06T12:32:52.558Z,34.90
2022-12-06T12:37:51.295Z,37.15
2022-12-06T12:40:28.971Z,43.90
2022-12-06T12:43:03.048Z,34.38
2022-12-06T12:45:30.279Z,33.42
2022-12-06T12:48:03.481Z,32.05
2022-12-06T12:50:57.773Z,35.33
2022-12-06T12:53:42.354Z,38.65
2022-12-06T12:56:14.661Z,36.25
2022-12-06T12:58:48.252Z,35.95
2022-12-06T13:01:32.907Z,38.38
2022-12-06T13:04:13.320Z,32.55
2022-12-06T13:06:49.338Z,34.42
2022-12-06T13:09:28.570Z,33.22
2022-12-06T13:12:02.281Z,31.30
2022-12-06T13:14:34.692Z,33.55
2022-12-06T13:17:20.929Z,29.25
2022-12-06T13:19:53.388Z,29.90
2022-12-06T13:22:26.142Z,33.67
2022-12-06T13:25:00.198Z,24.67
2022-12-06T13:27:30.478Z,28.63
2022-12-06T13:30:03.257Z,27.05
2022-12-06T13:32:36.335Z,24.90
2022-12-06T13:35:28.618Z,27.13
2022-12-06T13:38:00.473Z,28.55
2022-12-06T13:40:33.159Z,21.92
2022-12-06T13:43:01.952Z,27.52
2022-12-06T13:45:42.907Z,20.93
2022-12-06T13:48:50.056Z,24.73
2022-12-06T13:51:35.017Z,18.70
2022-12-06T13:54:04.788Z,18.80
2022-12-06T13:56:41.838Z,18.67
2022-12-06T13:59:11.485Z,20.80
2022-12-06T14:07:03.137Z,17.27
2022-12-06T14:09:39.819Z,15.93
2022-12-06T14:12:10.057Z,17.42
2022-12-06T14:14:36.690Z,15.98
2022-12-06T14:17:11.127Z,16.98
2022-12-06T14:20:06.646Z,18.95
2022-12-06T14:22:36.282Z,15.30
2022-12-06T14:25:02.895Z,19.85
2022-12-06T14:27:32.107Z,19.58
2022-12-06T14:30:14.530Z,17.52
2022-12-06T14:32:59.081Z,16.75
2022-12-06T14:35:27.797Z,21.25
2022-12-06T14:38:01.583Z,17.87
2022-12-06T14:44:38.207Z,25.20
2022-12-06T14:47:31.414Z,21.65
2022-12-06T14:50:28.112Z,17.58
2022-12-06T14:53:11.561Z,17.73
2022-12-06T14:55:59.375Z,15.98
2022-12-06T14:58:51.618Z,15.27
2022-12-06T15:01:24.235Z,23.23
2022-12-06T15:04:25.238Z,16.90
2022-12-06T15:06:55.196Z,17.77
2022-12-06T15:09:22.344Z,13.20
2022-12-06T15:12:07.789Z,15.90
2022-12-06T15:14:50.094Z,17.25
2022-12-06T15:20:15.458Z,20.60
2022-12-06T15:22:46.265Z,18.15
2022-12-06T15:25:14.190Z,21.02
2022-12-06T15:27:40.800Z,16.73
2022-12-06T15:30:09.200Z,19.55
2022-12-06T15:32:35.788Z,17.40
2022-12-06T15:35:02.432Z,17.63
2022-12-06T15:37:50.108Z,14.75
2022-12-06T15:40:17.962Z,17.65
2022-12-06T15:42:44.563Z,16.70
2022-12-06T15:45:17.304Z,14.68
2022-12-06T15:47:44.939Z,16.45
2022-12-06T15:50:15.079Z,14.90
2022-12-06T15:52:41.806Z,16.00
2022-12-06T15:55:24.854Z,18.02
2022-12-06T15:58:16.860Z,19.30
2022-12-06T16:00:43.476Z,16.75
2022-12-06T16:03:10.157Z,18.55
2022-12-06T16:05:36.836Z,15.55
2022-12-06T16:08:03.768Z,16.73
2022-12-06T16:11:02.950Z,22.80
2022-12-06T16:13:23.442Z,16.73
2022-12-06T16:15:55.071Z,18.63
2022-12-06T16:18:21.664Z,18.27
2022-12-06T16:20:48.694Z,17.42
2022-12-06T16:24:04.536Z,19.52
2022-12-06T16:26:23.579Z,17.50
2022-12-06T16:28:50.156Z,17.35
2022-12-06T16:31:16.974Z,18.88
2022-12-06T16:33:43.675Z,19.50
2022-12-06T16:36:23.016Z,17.13
2022-12-06T16:38:54.345Z,18.73
2022-12-06T16:41:23.257Z,16.08
2022-12-06T16:43:50.522Z,16.05
2022-12-06T16:46:26.273Z,19.92
2022-12-06T16:49:36.768Z,17.50
2022-12-06T16:51:51.867Z,21.90
2022-12-06T16:54:20.975Z,19.48
2022-12-06T16:56:47.575Z,16.77
2022-12-06T16:59:16.241Z,16.38
2022-12-06T17:01:51.834Z,19.27
2022-12-06T17:04:19.073Z,16.92
2022-12-06T17:06:46.904Z,16.23
2022-12-06T17:09:13.955Z,17.13
2022-12-06T17:12:03.129Z,17.75
2022-12-06T17:14:30.257Z,18.73
2022-12-06T17:16:59.207Z,17.77
2022-12-06T17:19:28.324Z,17.08
2022-12-06T17:21:55.307Z,15.70
2022-12-06T17:24:25.877Z,16.88
2022-12-06T17:26:55.853Z,18.73
2022-12-06T17:29:26.148Z,18.63
2022-12-06T17:31:53.070Z,20.92
2022-12-06T17:34:21.915Z,28.50
2022-12-06T17:36:49.655Z,27.02
2022-12-06T17:39:18.876Z,25.65
2022-12-06T17:42:04.215Z,27.48
2022-12-06T17:44:31.015Z,23.25
2022-12-06T17:46:57.628Z,21.90
2022-12-06T17:49:26.259Z,22.33
2022-12-06T17:51:53.379Z,23.27
2022-12-06T17:54:20.687Z,20.27
2022-12-06T17:56:49.682Z,19.33
2022-12-06T17:59:25.388Z,19.65
2022-12-06T18:04:39.891Z,16.17
2022-12-06T18:07:06.496Z,22.23
2022-12-06T18:09:33.101Z,18.88
2022-12-06T18:12:01.095Z,17.52
2022-12-06T18:14:31.009Z,16.75
2022-12-06T18:16:57.741Z,23.75
2022-12-06T18:19:24.385Z,17.02
2022-12-06T18:21:52.985Z,18.90
2022-12-06T18:24:23.170Z,17.75
2022-12-06T18:26:52.332Z,18.52
2022-12-06T18:29:21.934Z,20.52
2022-12-06T18:34:15.779Z,19.48
2022-12-06T18:36:42.606Z,20.02
2022-12-06T18:39:14.984Z,17.55
2022-12-06T18:41:45.460Z,19.83
2022-12-06T18:44:12.908Z,18.27
2022-12-06T18:46:42.430Z,17.73
2022-12-06T18:49:13.244Z,15.80
2022-12-06T18:51:40.165Z,23.17
2022-12-06T18:54:13.460Z,20.02
2022-12-06T18:56:40.030Z,23.80
2022-12-06T18:59:09.247Z,19.95
2022-12-06T19:01:38.668Z,21.90
2022-12-06T19:06:35.767Z,20.60
2022-12-06T19:09:10.806Z,22.10
2022-12-06T19:11:39.261Z,25.00
2022-12-06T19:14:06.036Z,21.77
2022-12-06T19:16:40.103Z,23.55
2022-12-06T19:19:15.836Z,28.85
2022-12-06T19:21:45.610Z,21.83
2022-12-06T19:24:15.751Z,25.45
2022-12-06T19:26:42.992Z,18.75
2022-12-06T19:29:10.055Z,22.83
2022-12-06T19:31:36.932Z,21.83
2022-12-06T19:34:03.795Z,17.08
2022-12-06T19:36:31.570Z,20.50
2022-12-06T19:39:05.885Z,19.00
2022-12-06T19:41:53.487Z,21.40
2022-12-06T19:44:20.225Z,19.02
2022-12-06T19:46:48.391Z,23.40
2022-12-06T19:49:16.936Z,23.17
2022-12-06T19:51:45.404Z,19.55
2022-12-06T19:54:16.291Z,21.73
2022-12-06T19:56:43.241Z,23.25
2022-12-06T19:59:15.975Z,20.77
2022-12-06T20:02:10.353Z,20.27
2022-12-06T20:04:40.066Z,16.88
2022-12-06T20:09:37.553Z,32.28
2022-12-06T20:12:05.306Z,27.33
2022-12-06T20:14:42.410Z,26.48
2022-12-06T20:17:13.947Z,24.83
2022-12-06T20:19:46.328Z,23.30
2022-12-06T20:22:15.665Z,28.27
2022-12-06T20:24:46.371Z,26.30
2022-12-06T20:27:12.932Z,27.90
2022-12-06T20:29:40.131Z,31.38
2022-12-06T20:32:06.806Z,30.50
2022-12-06T20:34:35.166Z,33.25
2022-12-06T20:37:03.804Z,32.05
2022-12-06T20:39:32.842Z,30.33
2022-12-06T20:42:02.015Z,28.85
2022-12-06T20:44:28.652Z,27.23
2022-12-06T20:46:57.227Z,29.90
2022-12-06T20:49:23.877Z,30.97
2022-12-06T20:51:53.282Z,31.35
2022-12-06T20:54:21.492Z,32.70
2022-12-06T20:56:51.406Z,30.30
2022-12-06T20:59:18.323Z,28.58
2022-12-06T21:01:45.124Z,38.03
2022-12-06T21:04:15.058Z,30.63
2022-12-06T21:06:41.841Z,31.98
2022-12-06T21:09:08.715Z,28.83
2022-12-06T21:11:35.485Z,30.02
2022-12-06T21:14:03.967Z,32.30
2022-12-06T21:16:32.991Z,33.15
2022-12-06T21:19:05.930Z,32.67
2022-12-06T21:21:34.819Z,34.85
2022-12-06T21:24:02.720Z,35.92
2022-12-06T21:26:30.150Z,38.20
2022-12-06T21:28:57.171Z,36.00
2022-12-06T21:31:29.437Z,37.17
2022-12-06T21:33:59.766Z,39.67
2022-12-06T21:36:30.183Z,39.80
2022-12-06T21:38:57.997Z,42.40
2022-12-06T21:41:27.085Z,41.88
2022-12-06T21:43:53.636Z,44.42
2022-12-06T21:46:22.268Z,40.38
2022-12-06T21:49:01.159Z,45.47
2022-12-06T21:51:31.120Z,42.58
2022-12-06T21:53:58.240Z,43.20
2022-12-06T21:56:31.273Z,44.38
2022-12-06T21:59:01.042Z,41.38
2022-12-06T22:02:00.188Z,43.78
2022-12-06T22:04:38.429Z,47.75
2022-12-06T22:07:05.212Z,41.97
2022-12-06T22:09:32.920Z,44.53
2022-12-06T22:11:59.629Z,44.15
2022-12-06T22:14:26.377Z,46.30
2022-12-06T22:16:53.215Z,46.15
2022-12-06T22:19:19.963Z,50.97
2022-12-06T22:21:48.285Z,51.25
2022-12-06T22:24:18.040Z,43.20
2022-12-06T22:26:55.498Z,54.42
2022-12-06T22:29:22.499Z,50.15
2022-12-06T22:31:49.139Z,47.00
2022-12-06T22:34:15.835Z,52.88
2022-12-06T22:36:42.401Z,54.80
2022-12-06T22:39:10.287Z,58.03
2022-12-06T22:41:37.240Z,60.75
2022-12-06T22:44:06.409Z,55.20
2022-12-06T22:46:34.533Z,53.83
2022-12-06T22:49:01.700Z,51.75
2022-12-06T22:51:33.742Z,56.25
2022-12-06T22:54:11.007Z,59.00
2022-12-06T22:56:48.651Z,57.10
2022-12-06T22:59:17.085Z,63.63
2022-12-06T23:01:43.901Z,62.97
2022-12-06T23:04:11.547Z,61.97
2022-12-06T23:06:39.404Z,65.25
2022-12-06T23:09:07.697Z,65.50
2022-12-06T23:11:36.251Z,67.53
2022-12-06T23:14:04.372Z,72.65
2022-12-06T23:16:32.455Z,65.72
2022-12-06T23:19:01.523Z,70.35
2022-12-06T23:21:30.697Z,72.32
2022-12-06T23:24:00.929Z,69.07
2022-12-06T23:26:42.373Z,69.50
2022-12-06T23:29:09.412Z,68.78
2022-12-06T23:31:38.813Z,69.80
2022-12-06T23:34:18.339Z,69.88
2022-12-06T23:36:44.916Z,76.32
2022-12-06T23:39:12.225Z,76.63
2022-12-06T23:41:38.987Z,73.82
2022-12-06T23:44:06.576Z,73.55
2022-12-06T23:46:35.689Z,75.00
2022-12-06T23:49:10.299Z,60.28
2022-12-06T23:51:38.632Z,78.72
2022-12-06T23:54:07.368Z,75.65
2022-12-06T23:56:36.705Z,82.67
2022-12-06T23:59:04.912Z,81.15
